Time;durP1;ratioP1;P1;durP2;ratioP2;P2;SDS_P1;SDS_P2;PMS_P1;PMS_P2;Temp;Humidity;BMP_temperature;BMP_pressure;BME280_temperature;BME280_humidity;BME280_pressure;Samples;Min_cycle;Max_cycle;Signal;HPM_P1;HPM_P2
2022/08/20 00:02:15;;;;;;;11.02;7.97;;;;;;;;;;5035055;28;20315;-62
2022/08/20 00:04:40;;;;;;;10.45;8.00;;;;;;;;;;5035847;28;20164;-62
2022/08/20 00:07:06;;;;;;;11.57;8.07;;;;;;;;;;5035525;28;20204;-62
2022/08/20 00:09:31;;;;;;;9.75;7.80;;;;;;;;;;5034758;28;20584;-62
2022/08/20 00:11:56;;;;;;;9.38;7.63;;;;;;;;;;5035403;28;20168;-62
2022/08/20 00:14:22;;;;;;;11.50;8.32;;;;;;;;;;5035520;28;20183;-62
2022/08/20 00:16:47;;;;;;;10.63;8.57;;;;;;;;;;5034940;28;20183;-62
2022/08/20 00:19:12;;;;;;;9.63;8.15;;;;;;;;;;5035270;28;20530;-62
2022/08/20 00:21:38;;;;;;;11.80;8.55;;;;;;;;;;5035529;28;20266;-62
2022/08/20 00:24:04;;;;;;;10.23;8.13;;;;;;;;;;5034333;28;20546;-62
2022/08/20 00:26:29;;;;;;;10.52;8.18;;;;;;;;;;5035218;28;20207;-62
2022/08/20 00:28:54;;;;;;;12.20;8.85;;;;;;;;;;5035237;28;20247;-62
2022/08/20 00:31:20;;;;;;;11.73;8.75;;;;;;;;;;5034033;28;20210;-62
2022/08/20 00:33:46;;;;;;;13.23;8.73;;;;;;;;;;5035199;28;20507;-62
2022/08/20 00:36:11;;;;;;;12.73;8.95;;;;;;;;;;5035242;28;20637;-62
2022/08/20 00:38:37;;;;;;;12.98;9.35;;;;;;;;;;5032838;28;20184;-62
2022/08/20 00:41:02;;;;;;;13.30;8.68;;;;;;;;;;5034947;28;20593;-62
2022/08/20 00:43:27;;;;;;;11.20;8.52;;;;;;;;;;5035117;28;20242;-62
2022/08/20 00:45:56;;;;;;;11.68;9.32;;;;;;;;;;5033972;28;20315;-62
2022/08/20 00:48:22;;;;;;;11.45;8.80;;;;;;;;;;5034818;28;20190;-62
2022/08/20 00:50:47;;;;;;;13.75;10.07;;;;;;;;;;5034154;28;20160;-62
2022/08/20 00:53:14;;;;;;;13.52;9.73;;;;;;;;;;5034471;28;20640;-62
2022/08/20 00:55:39;;;;;;;11.93;8.90;;;;;;;;;;5033477;28;20181;-62
2022/08/20 00:58:08;;;;;;;12.52;9.85;;;;;;;;;;5032707;28;20161;-62
2022/08/20 01:00:36;;;;;;;12.70;9.43;;;;;;;;;;5034621;28;20168;-62
2022/08/20 01:03:02;;;;;;;12.15;9.57;;;;;;;;;;5034855;28;20252;-62
2022/08/20 01:05:28;;;;;;;15.10;9.65;;;;;;;;;;5033856;28;20234;-62
2022/08/20 01:07:53;;;;;;;13.55;9.25;;;;;;;;;;5033526;28;20175;-62
2022/08/20 01:10:22;;;;;;;13.20;10.15;;;;;;;;;;5034189;28;21241;-62
2022/08/20 01:12:47;;;;;;;12.77;10.15;;;;;;;;;;5033753;28;20168;-62
2022/08/20 01:15:14;;;;;;;18.73;10.73;;;;;;;;;;5034389;28;20167;-62
2022/08/20 01:17:44;;;;;;;15.05;10.15;;;;;;;;;;5016671;28;20178;-62
2022/08/20 01:20:10;;;;;;;12.85;9.20;;;;;;;;;;5033277;28;20697;-61
2022/08/20 01:25:49;;;;;;;14.50;10.02;;;;;;;;;;5033512;28;20194;-61
2022/08/20 01:28:15;;;;;;;13.88;10.18;;;;;;;;;;5033384;28;20265;-61
2022/08/20 01:30:41;;;;;;;15.00;10.77;;;;;;;;;;5032947;28;20714;-61
2022/08/20 01:33:06;;;;;;;13.52;9.70;;;;;;;;;;5032341;28;20192;-61
2022/08/20 01:35:36;;;;;;;13.60;10.18;;;;;;;;;;5034253;28;20248;-61
2022/08/20 01:38:02;;;;;;;14.43;11.00;;;;;;;;;;5033134;28;20164;-61
2022/08/20 01:40:34;;;;;;;13.35;10.85;;;;;;;;;;5033083;28;20164;-61
2022/08/20 01:42:59;;;;;;;12.63;9.90;;;;;;;;;;5032746;28;20208;-61
2022/08/20 01:45:27;;;;;;;13.55;9.82;;;;;;;;;;5033687;28;20255;-61
2022/08/20 01:47:52;;;;;;;13.32;10.02;;;;;;;;;;5004642;28;20304;-61
2022/08/20 01:50:22;;;;;;;12.88;10.25;;;;;;;;;;5004584;28;20300;-61
2022/08/20 01:52:50;;;;;;;15.35;10.43;;;;;;;;;;5020749;28;20566;-61
2022/08/20 01:55:15;;;;;;;13.48;9.40;;;;;;;;;;5013896;28;20176;-60
2022/08/20 01:57:41;;;;;;;12.63;9.10;;;;;;;;;;5013958;28;20176;-60
2022/08/20 02:00:08;;;;;;;16.30;9.68;;;;;;;;;;5016212;28;20207;-60
2022/08/20 02:02:34;;;;;;;17.20;9.57;;;;;;;;;;5006574;28;20177;-60
2022/08/20 02:04:59;;;;;;;16.52;9.75;;;;;;;;;;5003656;28;20196;-61
2022/08/20 02:07:25;;;;;;;13.02;9.82;;;;;;;;;;5004119;28;20212;-61
2022/08/20 02:09:50;;;;;;;12.88;8.95;;;;;;;;;;5020683;28;20176;-61
2022/08/20 02:12:16;;;;;;;14.00;9.15;;;;;;;;;;5023295;28;20215;-60
2022/08/20 02:14:42;;;;;;;13.52;9.20;;;;;;;;;;5023186;28;20178;-60
2022/08/20 02:17:08;;;;;;;12.38;8.40;;;;;;;;;;5015161;28;20226;-60
2022/08/20 02:19:37;;;;;;;12.10;8.60;;;;;;;;;;5010631;28;20260;-61
2022/08/20 02:22:05;;;;;;;11.80;7.88;;;;;;;;;;4994182;28;20176;-60
2022/08/20 02:24:30;;;;;;;12.88;7.97;;;;;;;;;;5019113;28;20172;-60
2022/08/20 02:26:55;;;;;;;11.02;7.35;;;;;;;;;;5022928;28;20219;-61
2022/08/20 02:29:21;;;;;;;10.07;7.30;;;;;;;;;;5021798;28;20176;-61
2022/08/20 02:31:46;;;;;;;10.32;7.53;;;;;;;;;;5023277;28;20195;-60
2022/08/20 02:34:12;;;;;;;10.30;7.47;;;;;;;;;;5023073;28;20207;-61
2022/08/20 02:36:37;;;;;;;12.07;7.22;;;;;;;;;;5022306;28;20748;-61
2022/08/20 02:39:04;;;;;;;13.02;7.82;;;;;;;;;;5002013;28;20183;-60
2022/08/20 02:41:29;;;;;;;11.75;7.50;;;;;;;;;;5014740;28;20183;-61
2022/08/20 02:43:55;;;;;;;11.63;7.70;;;;;;;;;;5013932;28;20180;-61
2022/08/20 02:46:20;;;;;;;13.70;7.55;;;;;;;;;;5017980;28;20239;-60
2022/08/20 02:48:45;;;;;;;10.55;7.15;;;;;;;;;;5030290;28;20206;-61
2022/08/20 02:51:11;;;;;;;10.30;7.50;;;;;;;;;;5010616;28;20591;-61
2022/08/20 02:53:37;;;;;;;11.30;7.43;;;;;;;;;;5002786;28;20183;-61
2022/08/20 02:56:03;;;;;;;10.05;7.15;;;;;;;;;;5005936;28;20192;-61
2022/08/20 02:58:28;;;;;;;10.65;7.30;;;;;;;;;;5019899;28;20241;-60
2022/08/20 03:00:55;;;;;;;11.68;6.85;;;;;;;;;;5019572;28;20177;-61
2022/08/20 03:03:21;;;;;;;12.15;7.35;;;;;;;;;;5021381;28;20259;-61
2022/08/20 03:05:47;;;;;;;10.77;7.38;;;;;;;;;;5014261;28;20207;-60
2022/08/20 03:08:13;;;;;;;11.52;8.75;;;;;;;;;;5014543;28;20282;-60
2022/08/20 03:10:39;;;;;;;13.73;8.70;;;;;;;;;;5014572;28;20643;-61
2022/08/20 03:13:04;;;;;;;10.43;7.88;;;;;;;;;;5021430;28;20206;-61
2022/08/20 03:15:30;;;;;;;10.55;7.78;;;;;;;;;;5022431;28;21170;-61
2022/08/20 03:17:56;;;;;;;12.05;7.88;;;;;;;;;;5022522;28;20850;-61
2022/08/20 03:20:21;;;;;;;10.52;6.95;;;;;;;;;;5010941;28;21005;-60
2022/08/20 03:22:48;;;;;;;9.40;7.45;;;;;;;;;;5002973;28;20176;-61
2022/08/20 03:25:13;;;;;;;8.93;6.72;;;;;;;;;;5022399;28;20302;-60
2022/08/20 03:27:38;;;;;;;12.48;7.47;;;;;;;;;;5015374;28;20233;-60
2022/08/20 03:30:04;;;;;;;9.25;6.85;;;;;;;;;;5014183;28;20685;-61
2022/08/20 03:32:29;;;;;;;10.68;7.65;;;;;;;;;;5013824;28;20187;-61
2022/08/20 03:34:55;;;;;;;10.93;7.53;;;;;;;;;;5019552;28;20180;-60
2022/08/20 03:37:20;;;;;;;11.15;7.38;;;;;;;;;;5018906;28;20211;-61
2022/08/20 03:39:45;;;;;;;9.48;7.15;;;;;;;;;;5036486;28;20665;-60
2022/08/20 03:42:11;;;;;;;8.73;7.30;;;;;;;;;;5018059;28;20235;-60
2022/08/20 03:44:36;;;;;;;9.50;7.05;;;;;;;;;;5002217;28;20185;-60
2022/08/20 03:47:06;;;;;;;9.68;6.53;;;;;;;;;;5001822;28;20239;-60
2022/08/20 03:49:31;;;;;;;9.95;7.63;;;;;;;;;;5018950;28;20200;-60
2022/08/20 03:51:56;;;;;;;11.32;7.05;;;;;;;;;;5014685;28;20557;-60
2022/08/20 03:54:22;;;;;;;9.90;7.43;;;;;;;;;;5009700;28;20772;-60
2022/08/20 03:56:47;;;;;;;11.88;7.65;;;;;;;;;;4997411;28;20184;-60
2022/08/20 03:59:12;;;;;;;9.68;7.47;;;;;;;;;;5002480;28;20632;-61
2022/08/20 04:01:38;;;;;;;10.73;7.82;;;;;;;;;;5002217;28;20180;-61
2022/08/20 04:04:03;;;;;;;9.73;7.78;;;;;;;;;;5002673;28;20908;-60
2022/08/20 04:06:29;;;;;;;10.13;7.38;;;;;;;;;;5004879;28;20213;-60
2022/08/20 04:08:54;;;;;;;11.55;7.18;;;;;;;;;;5005486;28;20231;-60
2022/08/20 04:11:20;;;;;;;12.23;7.97;;;;;;;;;;5024587;28;20179;-61
2022/08/20 04:13:45;;;;;;;10.43;7.90;;;;;;;;;;4998854;28;20193;-60
2022/08/20 04:16:10;;;;;;;9.60;7.00;;;;;;;;;;4997910;28;20180;-60
2022/08/20 04:18:36;;;;;;;10.02;7.65;;;;;;;;;;4998754;28;20266;-60
2022/08/20 04:21:02;;;;;;;13.20;7.57;;;;;;;;;;5005772;28;20629;-61
2022/08/20 04:23:28;;;;;;;10.52;8.10;;;;;;;;;;5016518;28;20192;-60
2022/08/20 04:25:53;;;;;;;12.68;7.82;;;;;;;;;;5011094;28;20252;-61
2022/08/20 04:28:27;;;;;;;9.68;7.15;;;;;;;;;;5033098;28;20317;-60
2022/08/20 04:30:53;;;;;;;11.32;8.38;;;;;;;;;;5033264;28;20412;-60
2022/08/20 04:33:18;;;;;;;11.23;7.90;;;;;;;;;;5035059;28;20204;-61
2022/08/20 04:35:44;;;;;;;12.85;7.40;;;;;;;;;;5035238;28;20192;-61
2022/08/20 04:38:10;;;;;;;11.98;7.45;;;;;;;;;;5033723;28;20262;-61
2022/08/20 04:43:22;;;;;;;13.10;7.63;;;;;;;;;;5031910;28;20191;-61
2022/08/20 04:45:47;;;;;;;10.38;7.63;;;;;;;;;;5033796;28;20298;-63
2022/08/20 04:48:13;;;;;;;11.35;8.07;;;;;;;;;;5032846;28;20234;-63
2022/08/20 04:50:38;;;;;;;13.25;8.95;;;;;;;;;;5030494;28;20168;-63
2022/08/20 04:53:04;;;;;;;11.15;8.07;;;;;;;;;;5033334;28;20176;-63
2022/08/20 04:55:30;;;;;;;13.32;8.25;;;;;;;;;;5034222;28;20164;-63
2022/08/20 04:57:56;;;;;;;11.38;8.13;;;;;;;;;;5032627;28;20191;-62
2022/08/20 05:00:22;;;;;;;15.05;8.63;;;;;;;;;;5033879;28;20172;-62
2022/08/20 05:02:47;;;;;;;12.43;8.13;;;;;;;;;;5033331;28;20164;-62
2022/08/20 05:05:13;;;;;;;11.10;8.70;;;;;;;;;;5033386;28;20176;-63
2022/08/20 05:07:39;;;;;;;13.23;9.30;;;;;;;;;;5032324;28;20449;-62
2022/08/20 05:10:05;;;;;;;12.73;8.52;;;;;;;;;;5030403;28;20172;-62
2022/08/20 05:12:30;;;;;;;10.65;7.82;;;;;;;;;;5033360;28;20178;-62
2022/08/20 05:14:56;;;;;;;13.95;8.32;;;;;;;;;;5033866;28;20167;-61
2022/08/20 05:17:22;;;;;;;11.25;7.63;;;;;;;;;;5033169;28;20684;-62
2022/08/20 05:19:48;;;;;;;13.23;8.45;;;;;;;;;;5031012;28;20172;-62
2022/08/20 05:22:13;;;;;;;13.13;8.40;;;;;;;;;;5031864;28;20208;-62
2022/08/20 05:24:38;;;;;;;12.00;8.00;;;;;;;;;;5034032;28;20229;-62
2022/08/20 05:27:03;;;;;;;15.65;8.07;;;;;;;;;;5032959;28;20287;-62
2022/08/20 05:29:29;;;;;;;11.75;8.38;;;;;;;;;;5033622;28;20171;-62
2022/08/20 05:31:55;;;;;;;11.13;7.88;;;;;;;;;;5033838;28;20168;-61
2022/08/20 05:34:21;;;;;;;13.63;7.95;;;;;;;;;;5032730;28;20160;-61
2022/08/20 05:36:47;;;;;;;12.55;8.20;;;;;;;;;;5033507;28;20183;-60
2022/08/20 05:39:12;;;;;;;14.57;8.70;;;;;;;;;;5033620;28;20179;-59
2022/08/20 05:41:38;;;;;;;15.43;8.77;;;;;;;;;;5034193;28;20179;-59
2022/08/20 05:44:03;;;;;;;14.95;7.95;;;;;;;;;;5034241;28;20627;-60
2022/08/20 05:46:29;;;;;;;13.23;8.80;;;;;;;;;;5032785;28;20825;-60
2022/08/20 05:48:55;;;;;;;12.75;8.82;;;;;;;;;;5033820;28;20549;-70
2022/08/20 05:51:21;;;;;;;12.30;7.47;;;;;;;;;;5030773;28;20183;-65
2022/08/20 05:53:46;;;;;;;13.70;7.10;;;;;;;;;;5031643;28;20234;-65
2022/08/20 05:56:11;;;;;;;10.50;6.32;;;;;;;;;;5033251;28;20524;-65
2022/08/20 05:58:36;;;;;;;7.93;5.05;;;;;;;;;;5033213;28;20630;-65
2022/08/20 06:01:02;;;;;;;9.10;4.25;;;;;;;;;;5032146;28;20160;-65
2022/08/20 06:06:11;;;;;;;9.77;4.03;;;;;;;;;;5032439;28;20744;-65
2022/08/20 06:08:37;;;;;;;7.47;3.90;;;;;;;;;;5032472;28;20161;-65
2022/08/20 06:11:02;;;;;;;11.00;4.00;;;;;;;;;;5032626;28;20176;-60
2022/08/20 06:13:27;;;;;;;10.52;3.80;;;;;;;;;;5033783;28;20534;-60
2022/08/20 06:15:53;;;;;;;9.50;4.43;;;;;;;;;;5032498;28;20536;-60
2022/08/20 06:18:19;;;;;;;9.63;3.90;;;;;;;;;;5028716;28;20179;-60
2022/08/20 06:20:44;;;;;;;10.50;3.80;;;;;;;;;;5033199;28;20259;-60
2022/08/20 06:23:10;;;;;;;9.73;3.70;;;;;;;;;;5032627;28;20209;-60
2022/08/20 06:25:35;;;;;;;6.38;3.28;;;;;;;;;;5033259;28;20207;-60
2022/08/20 06:28:01;;;;;;;8.30;3.63;;;;;;;;;;5032683;28;20203;-60
2022/08/20 06:30:26;;;;;;;9.27;3.65;;;;;;;;;;5017097;28;20191;-60
2022/08/20 06:32:52;;;;;;;8.73;3.60;;;;;;;;;;5028686;28;20573;-60
2022/08/20 06:35:17;;;;;;;8.93;3.40;;;;;;;;;;5031725;28;20583;-60
2022/08/20 06:37:42;;;;;;;8.20;3.70;;;;;;;;;;5030685;28;20164;-60
2022/08/20 06:40:09;;;;;;;9.98;3.88;;;;;;;;;;5033419;28;20206;-60
2022/08/20 06:42:34;;;;;;;8.25;3.80;;;;;;;;;;5032125;28;20267;-60
2022/08/20 06:45:03;;;;;;;7.15;3.53;;;;;;;;;;5031794;28;21006;-61
2022/08/20 06:47:30;;;;;;;10.40;4.20;;;;;;;;;;5032385;28;20266;-60
2022/08/20 06:49:55;;;;;;;7.25;4.13;;;;;;;;;;5031270;28;20203;-60
2022/08/20 06:52:21;;;;;;;10.43;4.63;;;;;;;;;;5032916;28;20686;-61
2022/08/20 06:54:46;;;;;;;10.10;4.55;;;;;;;;;;5032714;28;20686;-61
2022/08/20 06:57:11;;;;;;;11.65;4.85;;;;;;;;;;5032172;28;20176;-61
2022/08/20 06:59:37;;;;;;;9.85;4.60;;;;;;;;;;5032913;28;20631;-61
2022/08/20 07:02:02;;;;;;;9.80;4.80;;;;;;;;;;5019962;28;20180;-61
2022/08/20 07:04:27;;;;;;;11.02;5.43;;;;;;;;;;5012034;28;20617;-60
2022/08/20 07:06:53;;;;;;;14.65;5.22;;;;;;;;;;5012790;28;20687;-61
2022/08/20 07:09:19;;;;;;;13.18;5.85;;;;;;;;;;5012045;28;20172;-61
2022/08/20 07:11:44;;;;;;;10.73;5.03;;;;;;;;;;5012449;28;20582;-61
2022/08/20 07:14:10;;;;;;;12.98;5.03;;;;;;;;;;5012898;28;20690;-61
2022/08/20 07:16:35;;;;;;;12.43;6.00;;;;;;;;;;5012801;28;20184;-61
2022/08/20 07:19:01;;;;;;;10.90;5.35;;;;;;;;;;5011726;28;20655;-60
2022/08/20 07:21:26;;;;;;;12.40;5.60;;;;;;;;;;5019909;28;20631;-61
2022/08/20 07:23:51;;;;;;;8.40;5.25;;;;;;;;;;5032614;28;20607;-61
2022/08/20 07:26:17;;;;;;;9.07;4.45;;;;;;;;;;5031903;28;20203;-62
2022/08/20 07:28:42;;;;;;;12.52;5.10;;;;;;;;;;5031088;28;20249;-61
2022/08/20 07:33:51;;;;;;;8.75;4.25;;;;;;;;;;5031206;28;20187;-61
2022/08/20 07:36:17;;;;;;;11.65;4.72;;;;;;;;;;5032539;28;20176;-60
2022/08/20 07:38:46;;;;;;;11.45;4.60;;;;;;;;;;5031775;28;20211;-61
2022/08/20 07:41:12;;;;;;;10.05;4.43;;;;;;;;;;5036433;28;20171;-61
2022/08/20 07:43:38;;;;;;;11.55;4.82;;;;;;;;;;5036144;28;20167;-61
2022/08/20 07:46:07;;;;;;;12.43;4.88;;;;;;;;;;5035093;28;20334;-61
2022/08/20 07:48:33;;;;;;;8.98;4.00;;;;;;;;;;5034600;28;20180;-61
2022/08/20 07:50:59;;;;;;;11.63;5.40;;;;;;;;;;5035720;28;20251;-61
2022/08/20 07:53:24;;;;;;;11.20;5.13;;;;;;;;;;5035190;28;20218;-61
2022/08/20 07:55:49;;;;;;;12.20;4.72;;;;;;;;;;5035878;28;20263;-61
2022/08/20 07:58:16;;;;;;;12.23;5.15;;;;;;;;;;5035846;28;20169;-61
2022/08/20 08:00:41;;;;;;;11.48;4.63;;;;;;;;;;5035221;28;20650;-61
2022/08/20 08:03:08;;;;;;;11.77;3.80;;;;;;;;;;5034428;28;20187;-61
2022/08/20 08:05:33;;;;;;;11.40;3.65;;;;;;;;;;5035746;28;20190;-61
2022/08/20 08:07:58;;;;;;;10.90;4.35;;;;;;;;;;5035131;28;20303;-61
2022/08/20 08:10:24;;;;;;;8.60;3.80;;;;;;;;;;5036085;28;20164;-61
2022/08/20 08:12:51;;;;;;;10.43;3.40;;;;;;;;;;5035928;28;20176;-61
2022/08/20 08:15:20;;;;;;;12.13;3.60;;;;;;;;;;5035008;28;20642;-61
2022/08/20 08:17:45;;;;;;;10.60;4.13;;;;;;;;;;5033970;28;20164;-61
2022/08/20 08:20:11;;;;;;;12.30;5.05;;;;;;;;;;5035917;28;20161;-60
2022/08/20 08:22:36;;;;;;;15.40;6.13;;;;;;;;;;5033697;28;20571;-61
2022/08/20 08:25:02;;;;;;;11.98;5.70;;;;;;;;;;5035773;28;20651;-61
2022/08/20 08:27:31;;;;;;;11.15;4.88;;;;;;;;;;5035500;28;20538;-60
2022/08/20 08:29:57;;;;;;;10.88;6.47;;;;;;;;;;5033538;28;20229;-61
2022/08/20 08:32:23;;;;;;;15.48;5.35;;;;;;;;;;5035332;28;20628;-61
2022/08/20 08:34:48;;;;;;;10.35;4.10;;;;;;;;;;5033857;28;20182;-61
2022/08/20 08:37:14;;;;;;;10.07;5.28;;;;;;;;;;5034516;28;20178;-61
2022/08/20 08:39:39;;;;;;;13.65;4.55;;;;;;;;;;5035460;28;20258;-61
2022/08/20 08:42:04;;;;;;;10.10;4.47;;;;;;;;;;5034614;28;20203;-61
2022/08/20 08:44:33;;;;;;;11.13;4.05;;;;;;;;;;5033884;28;20599;-62
2022/08/20 08:47:02;;;;;;;9.77;4.15;;;;;;;;;;5033554;28;20710;-62
2022/08/20 08:49:28;;;;;;;11.50;4.72;;;;;;;;;;5032933;28;20218;-62
2022/08/20 08:51:55;;;;;;;11.68;4.40;;;;;;;;;;5032590;28;20558;-62
2022/08/20 08:54:21;;;;;;;12.20;4.00;;;;;;;;;;5033609;28;20172;-63
2022/08/20 08:56:46;;;;;;;11.35;4.68;;;;;;;;;;5034147;28;20617;-61
2022/08/20 08:59:11;;;;;;;11.57;4.40;;;;;;;;;;5034826;28;20168;-62
2022/08/20 09:01:41;;;;;;;11.77;4.30;;;;;;;;;;5034778;28;20255;-61
2022/08/20 09:04:07;;;;;;;12.85;3.78;;;;;;;;;;5033630;28;20168;-62
2022/08/20 09:06:32;;;;;;;10.45;3.03;;;;;;;;;;5034849;28;20539;-62
2022/08/20 09:08:59;;;;;;;8.63;3.47;;;;;;;;;;5034691;28;20638;-62
2022/08/20 09:11:25;;;;;;;9.75;2.75;;;;;;;;;;5033773;28;20168;-62
2022/08/20 09:13:53;;;;;;;9.88;2.65;;;;;;;;;;5032321;28;20181;-62
2022/08/20 09:16:18;;;;;;;9.30;2.72;;;;;;;;;;5034674;28;20456;-62
2022/08/20 09:18:43;;;;;;;7.40;2.00;;;;;;;;;;5033163;28;20623;-62
2022/08/20 09:21:09;;;;;;;9.20;2.20;;;;;;;;;;5034323;28;20168;-63
2022/08/20 09:23:35;;;;;;;8.35;2.30;;;;;;;;;;5033954;28;20250;-63
2022/08/20 09:26:00;;;;;;;8.77;2.25;;;;;;;;;;5033092;28;20685;-62
2022/08/20 09:28:25;;;;;;;10.80;2.60;;;;;;;;;;5034231;28;20187;-61
2022/08/20 09:30:50;;;;;;;12.77;2.30;;;;;;;;;;5034164;28;20161;-62
2022/08/20 09:33:16;;;;;;;7.35;2.25;;;;;;;;;;5033233;28;20210;-62
2022/08/20 09:35:43;;;;;;;5.82;2.00;;;;;;;;;;5034015;28;20259;-62
2022/08/20 09:38:08;;;;;;;10.45;2.45;;;;;;;;;;5029413;28;20180;-61
2022/08/20 09:40:34;;;;;;;10.75;2.40;;;;;;;;;;5033339;28;20163;-61
2022/08/20 09:42:59;;;;;;;7.95;2.10;;;;;;;;;;5033848;28;20172;-61
2022/08/20 09:45:25;;;;;;;7.88;2.10;;;;;;;;;;5032823;28;20204;-62
2022/08/20 09:47:50;;;;;;;9.30;2.13;;;;;;;;;;5033634;28;20217;-62
2022/08/20 09:50:15;;;;;;;8.98;1.73;;;;;;;;;;5033594;28;20494;-62
2022/08/20 09:52:41;;;;;;;7.68;1.90;;;;;;;;;;5032833;28;20472;-62
2022/08/20 09:55:20;;;;;;;7.65;1.80;;;;;;;;;;5033425;28;20164;-61
2022/08/20 09:57:46;;;;;;;8.95;2.03;;;;;;;;;;5033774;28;20212;-62
2022/08/20 10:00:11;;;;;;;6.57;1.70;;;;;;;;;;5032752;28;20219;-62
2022/08/20 10:02:36;;;;;;;6.15;1.75;;;;;;;;;;5032433;28;20200;-62
2022/08/20 10:05:02;;;;;;;8.23;1.95;;;;;;;;;;5033137;28;20168;-62
2022/08/20 10:07:27;;;;;;;10.32;2.03;;;;;;;;;;5032630;28;20643;-62
2022/08/20 10:09:53;;;;;;;9.75;2.28;;;;;;;;;;5033217;28;20175;-62
2022/08/20 10:12:18;;;;;;;7.95;1.92;;;;;;;;;;5033378;28;20179;-62
2022/08/20 10:14:43;;;;;;;8.38;1.98;;;;;;;;;;5032397;28;20172;-62
2022/08/20 10:17:09;;;;;;;8.20;1.90;;;;;;;;;;5033016;28;20180;-62
2022/08/20 10:19:34;;;;;;;9.80;1.73;;;;;;;;;;5033276;28;20635;-62
2022/08/20 10:21:59;;;;;;;8.63;2.13;;;;;;;;;;5032135;28;20276;-62
2022/08/20 10:24:25;;;;;;;8.43;1.80;;;;;;;;;;5032999;28;20172;-62
2022/08/20 10:26:50;;;;;;;8.57;2.25;;;;;;;;;;5032880;28;20349;-62
2022/08/20 10:29:16;;;;;;;10.02;1.90;;;;;;;;;;5030527;28;20172;-62
2022/08/20 10:31:41;;;;;;;9.38;2.38;;;;;;;;;;5032843;28;20650;-61
2022/08/20 10:34:07;;;;;;;9.40;2.28;;;;;;;;;;5032982;28;20204;-62
2022/08/20 10:36:32;;;;;;;8.95;2.40;;;;;;;;;;5031882;28;20168;-62
2022/08/20 10:38:57;;;;;;;9.60;2.20;;;;;;;;;;5031431;28;20175;-62
2022/08/20 10:41:22;;;;;;;10.90;2.28;;;;;;;;;;5033057;28;20243;-62
2022/08/20 10:43:48;;;;;;;7.50;2.05;;;;;;;;;;5032117;28;20611;-62
2022/08/20 10:46:13;;;;;;;8.23;2.03;;;;;;;;;;5032088;28;20614;-62
2022/08/20 10:48:38;;;;;;;7.68;1.80;;;;;;;;;;5030801;28;20612;-61
2022/08/20 10:51:04;;;;;;;9.23;1.98;;;;;;;;;;5032514;28;20218;-62
2022/08/20 10:53:29;;;;;;;11.55;1.85;;;;;;;;;;5032645;28;20233;-64
2022/08/20 10:55:55;;;;;;;9.45;1.80;;;;;;;;;;5031838;28;20160;-63
2022/08/20 10:58:20;;;;;;;6.35;1.75;;;;;;;;;;5032789;28;20172;-63
2022/08/20 11:00:46;;;;;;;8.45;1.63;;;;;;;;;;5032324;28;20175;-63
2022/08/20 11:03:11;;;;;;;7.63;1.80;;;;;;;;;;5030626;28;20234;-64
2022/08/20 11:05:36;;;;;;;8.40;1.60;;;;;;;;;;5032473;28;20171;-63
2022/08/20 11:08:02;;;;;;;12.10;2.00;;;;;;;;;;5032174;28;20315;-64
2022/08/20 11:10:28;;;;;;;8.98;1.80;;;;;;;;;;5030437;28;20165;-63
2022/08/20 11:12:53;;;;;;;7.70;1.67;;;;;;;;;;5032453;28;20166;-63
2022/08/20 11:15:19;;;;;;;9.48;1.60;;;;;;;;;;5035044;28;20249;-63
2022/08/20 11:17:44;;;;;;;8.13;1.70;;;;;;;;;;5035559;28;20172;-63
2022/08/20 11:20:10;;;;;;;6.68;1.67;;;;;;;;;;5036478;28;20171;-63
2022/08/20 11:22:35;;;;;;;9.27;2.03;;;;;;;;;;5036166;28;20172;-63
2022/08/20 11:25:01;;;;;;;8.52;1.60;;;;;;;;;;5035624;28;20171;-62
2022/08/20 11:27:28;;;;;;;6.72;1.65;;;;;;;;;;5036529;28;20258;-62
2022/08/20 11:29:54;;;;;;;6.78;1.55;;;;;;;;;;5035254;28;20172;-62
2022/08/20 11:32:19;;;;;;;10.02;1.75;;;;;;;;;;5035783;28;20160;-62
2022/08/20 11:34:44;;;;;;;7.05;1.67;;;;;;;;;;5036387;28;20611;-63
2022/08/20 11:37:11;;;;;;;8.23;1.70;;;;;;;;;;5035928;28;20204;-62
2022/08/20 11:39:36;;;;;;;4.90;1.60;;;;;;;;;;5035593;28;20179;-62
2022/08/20 11:42:01;;;;;;;5.70;1.58;;;;;;;;;;5035118;28;20164;-63
2022/08/20 11:44:27;;;;;;;8.32;1.77;;;;;;;;;;5035996;28;20537;-63
2022/08/20 11:46:52;;;;;;;8.27;1.98;;;;;;;;;;5035513;28;20671;-61
2022/08/20 11:49:17;;;;;;;6.82;1.35;;;;;;;;;;5036204;28;20164;-62
2022/08/20 11:51:43;;;;;;;7.82;1.75;;;;;;;;;;5035936;28;20202;-62
2022/08/20 11:54:08;;;;;;;9.55;1.88;;;;;;;;;;5035054;28;20176;-62
2022/08/20 11:56:33;;;;;;;7.30;1.60;;;;;;;;;;5035892;28;20627;-62
2022/08/20 11:58:59;;;;;;;5.63;1.25;;;;;;;;;;5034394;28;20183;-62
2022/08/20 12:01:24;;;;;;;9.52;1.60;;;;;;;;;;5034883;28;20169;-62
2022/08/20 12:03:49;;;;;;;6.45;1.35;;;;;;;;;;5032934;28;20179;-63
2022/08/20 12:06:15;;;;;;;8.63;1.63;;;;;;;;;;5049145;28;20189;-63
2022/08/20 12:08:40;;;;;;;8.80;1.50;;;;;;;;;;5055612;28;20206;-63
2022/08/20 12:11:06;;;;;;;7.60;1.70;;;;;;;;;;5055574;28;20609;-64
2022/08/20 12:13:32;;;;;;;7.35;1.75;;;;;;;;;;5053779;28;20163;-63
2022/08/20 12:15:57;;;;;;;9.60;1.50;;;;;;;;;;5046436;28;20180;-63
2022/08/20 12:18:22;;;;;;;9.77;1.90;;;;;;;;;;5035274;28;20206;-64
2022/08/20 12:20:48;;;;;;;6.78;1.40;;;;;;;;;;5034643;28;20160;-63
2022/08/20 12:23:14;;;;;;;8.40;2.03;;;;;;;;;;5035441;28;20226;-63
2022/08/20 12:25:39;;;;;;;6.32;1.58;;;;;;;;;;5033319;28;20180;-63
2022/08/20 12:28:04;;;;;;;6.78;1.45;;;;;;;;;;5034337;28;20275;-65
2022/08/20 12:30:30;;;;;;;7.97;1.75;;;;;;;;;;5035280;28;20180;-64
2022/08/20 12:32:55;;;;;;;7.07;1.65;;;;;;;;;;5035101;28;20586;-62
2022/08/20 12:35:20;;;;;;;7.70;1.70;;;;;;;;;;5034089;28;20221;-63
2022/08/20 12:37:46;;;;;;;6.07;1.63;;;;;;;;;;5034658;28;20167;-63
2022/08/20 12:40:13;;;;;;;7.38;1.60;;;;;;;;;;5035155;28;20318;-63
2022/08/20 12:42:38;;;;;;;7.55;1.50;;;;;;;;;;5034600;28;20218;-62
2022/08/20 12:45:04;;;;;;;7.75;1.50;;;;;;;;;;5034906;28;20675;-63
2022/08/20 12:47:30;;;;;;;6.55;1.60;;;;;;;;;;5034950;28;20211;-62
2022/08/20 12:49:56;;;;;;;6.82;1.50;;;;;;;;;;5032854;28;20160;-62
2022/08/20 12:52:22;;;;;;;7.22;1.52;;;;;;;;;;5034830;28;20524;-62
2022/08/20 12:54:47;;;;;;;7.32;1.35;;;;;;;;;;5034900;28;20164;-62
2022/08/20 12:57:14;;;;;;;6.22;1.40;;;;;;;;;;5034273;28;20183;-62
2022/08/20 12:59:40;;;;;;;7.70;1.95;;;;;;;;;;5035136;28;20560;-63
2022/08/20 13:02:05;;;;;;;6.88;1.42;;;;;;;;;;5034549;28;20654;-69
2022/08/20 13:04:30;;;;;;;8.98;1.98;;;;;;;;;;5033742;28;20172;-73
2022/08/20 13:07:02;;;;;;;7.28;1.73;;;;;;;;;;5034613;28;20662;-68
2022/08/20 13:09:27;;;;;;;8.95;1.75;;;;;;;;;;5033719;28;20526;-70
2022/08/20 13:11:52;;;;;;;9.05;1.88;;;;;;;;;;5034370;28;20164;-67
2022/08/20 13:14:18;;;;;;;7.13;1.50;;;;;;;;;;5034475;28;20211;-67
2022/08/20 13:16:43;;;;;;;7.75;1.70;;;;;;;;;;5033571;28;20168;-63
2022/08/20 13:19:08;;;;;;;8.30;1.65;;;;;;;;;;5033591;28;20168;-64
2022/08/20 13:21:35;;;;;;;7.95;1.90;;;;;;;;;;5034318;28;20183;-65
2022/08/20 13:24:00;;;;;;;6.38;1.45;;;;;;;;;;5033871;28;20168;-68
2022/08/20 13:26:26;;;;;;;7.70;1.42;;;;;;;;;;5034116;28;20195;-69
2022/08/20 13:28:51;;;;;;;9.02;1.77;;;;;;;;;;5034027;28;20198;-68
2022/08/20 13:31:16;;;;;;;8.15;1.40;;;;;;;;;;5033551;28;20616;-72
2022/08/20 13:33:42;;;;;;;6.93;1.60;;;;;;;;;;5033837;28;20211;-67
2022/08/20 13:36:07;;;;;;;7.57;1.95;;;;;;;;;;5033593;28;20171;-68
2022/08/20 13:38:32;;;;;;;6.88;1.52;;;;;;;;;;5033093;28;20183;-68
2022/08/20 13:40:58;;;;;;;5.25;1.35;;;;;;;;;;5033884;28;20171;-73
2022/08/20 13:43:23;;;;;;;12.18;1.95;;;;;;;;;;5033901;28;20172;-72
2022/08/20 13:45:48;;;;;;;7.95;1.50;;;;;;;;;;5033189;28;20223;-74
2022/08/20 13:48:13;;;;;;;8.13;1.80;;;;;;;;;;5033650;28;20200;-74
2022/08/20 13:50:39;;;;;;;7.68;2.22;;;;;;;;;;5033854;28;20164;-72
2022/08/20 13:53:04;;;;;;;6.40;1.60;;;;;;;;;;5031775;28;20180;-73
2022/08/20 13:55:29;;;;;;;8.70;1.70;;;;;;;;;;5033514;28;20249;-73
2022/08/20 13:57:55;;;;;;;9.05;1.98;;;;;;;;;;5033642;28;20164;-75
2022/08/20 14:00:22;;;;;;;6.65;1.83;;;;;;;;;;5031729;28;20180;-72
2022/08/20 14:02:47;;;;;;;6.97;1.58;;;;;;;;;;5031931;28;20635;-72
2022/08/20 14:05:14;;;;;;;7.07;1.75;;;;;;;;;;5033490;28;20175;-73
2022/08/20 14:07:39;;;;;;;6.10;1.70;;;;;;;;;;5032749;28;20218;-72
2022/08/20 14:10:06;;;;;;;8.95;1.80;;;;;;;;;;5033633;28;20168;-72
2022/08/20 14:12:31;;;;;;;9.43;1.83;;;;;;;;;;5032463;28;20624;-72
2022/08/20 14:14:56;;;;;;;7.85;1.77;;;;;;;;;;5033104;28;20171;-73
2022/08/20 14:17:23;;;;;;;10.18;1.70;;;;;;;;;;5033106;28;20168;-72
2022/08/20 14:19:48;;;;;;;6.95;1.70;;;;;;;;;;5031346;28;20177;-73
2022/08/20 14:22:16;;;;;;;12.00;2.13;;;;;;;;;;5032155;28;20178;-72
2022/08/20 14:24:41;;;;;;;9.48;2.00;;;;;;;;;;5033158;28;20623;-72
2022/08/20 14:27:07;;;;;;;8.20;1.65;;;;;;;;;;5032173;28;20241;-72
2022/08/20 14:29:33;;;;;;;10.23;2.20;;;;;;;;;;5031784;28;20259;-71
2022/08/20 14:31:58;;;;;;;7.80;1.58;;;;;;;;;;5032429;28;20160;-74
2022/08/20 14:34:23;;;;;;;9.00;1.60;;;;;;;;;;5032196;28;20164;-73
2022/08/20 14:36:49;;;;;;;7.18;1.65;;;;;;;;;;5033013;28;20171;-73
2022/08/20 14:39:14;;;;;;;5.68;1.60;;;;;;;;;;5033110;28;20176;-71